sensor_id;sensor_type;location;lat;lon;timestamp;pressure;altitude;pressure_sealevel;temperature;humidity
42169;BME280;27838;43.858;25.974;2023-03-25T00:00:00;100652.69;;;17.28;43.81
42169;BME280;27838;43.858;25.974;2023-03-25T00:02:31;100651.91;;;17.24;43.74
42169;BME280;27838;43.858;25.974;2023-03-25T00:04:59;100647.63;;;17.22;44.10
42169;BME280;27838;43.858;25.974;2023-03-25T00:07:28;100656.38;;;17.22;44.09
42169;BME280;27838;43.858;25.974;2023-03-25T00:09:55;100638.97;;;17.16;44.13
42169;BME280;27838;43.858;25.974;2023-03-25T00:12:22;100646.88;;;17.16;44.31
42169;BME280;27838;43.858;25.974;2023-03-25T00:14:50;100637.16;;;17.18;43.47
42169;BME280;27838;43.858;25.974;2023-03-25T00:17:23;100632.78;;;17.17;42.92
42169;BME280;27838;43.858;25.974;2023-03-25T00:19:53;100639.63;;;17.25;43.12
42169;BME280;27838;43.858;25.974;2023-03-25T00:22:21;100628.25;;;17.23;42.56
42169;BME280;27838;43.858;25.974;2023-03-25T00:24:48;100614.22;;;17.22;42.44
42169;BME280;27838;43.858;25.974;2023-03-25T00:27:14;100618.56;;;17.25;42.49
42169;BME280;27838;43.858;25.974;2023-03-25T00:29:42;100616.97;;;17.17;42.74
42169;BME280;27838;43.858;25.974;2023-03-25T00:32:10;100612.84;;;17.09;43.09
42169;BME280;27838;43.858;25.974;2023-03-25T00:34:37;100614.13;;;16.95;43.21
42169;BME280;27838;43.858;25.974;2023-03-25T00:37:07;100621.25;;;16.92;43.28
42169;BME280;27838;43.858;25.974;2023-03-25T00:39:37;100613.81;;;16.73;43.63
42169;BME280;27838;43.858;25.974;2023-03-25T00:42:04;100618.56;;;16.60;44.05
42169;BME280;27838;43.858;25.974;2023-03-25T00:44:31;100614.47;;;16.49;44.13
42169;BME280;27838;43.858;25.974;2023-03-25T00:46:57;100583.16;;;16.39;44.25
42169;BME280;27838;43.858;25.974;2023-03-25T00:49:24;100591.88;;;16.41;44.38
42169;BME280;27838;43.858;25.974;2023-03-25T00:51:54;100600.88;;;16.31;44.45
42169;BME280;27838;43.858;25.974;2023-03-25T00:54:22;100599.25;;;16.27;44.38
42169;BME280;27838;43.858;25.974;2023-03-25T00:56:50;100595.69;;;16.28;44.49
42169;BME280;27838;43.858;25.974;2023-03-25T00:59:18;100602.78;;;16.26;44.42
42169;BME280;27838;43.858;25.974;2023-03-25T01:01:44;100594.78;;;16.31;44.32
42169;BME280;27838;43.858;25.974;2023-03-25T01:04:11;100593.81;;;16.33;44.44
42169;BME280;27838;43.858;25.974;2023-03-25T01:06:39;100591.16;;;16.35;44.67
42169;BME280;27838;43.858;25.974;2023-03-25T01:09:10;100592.84;;;16.37;44.28
42169;BME280;27838;43.858;25.974;2023-03-25T01:11:39;100591.88;;;16.41;44.14
42169;BME280;27838;43.858;25.974;2023-03-25T01:14:09;100594.28;;;16.49;43.60
42169;BME280;27838;43.858;25.974;2023-03-25T01:16:37;100589.78;;;16.53;43.85
42169;BME280;27838;43.858;25.974;2023-03-25T01:19:04;100583.59;;;16.55;43.54
42169;BME280;27838;43.858;25.974;2023-03-25T01:21:30;100586.13;;;16.60;43.35
42169;BME280;27838;43.858;25.974;2023-03-25T01:24:00;100590.34;;;16.66;43.42
42169;BME280;27838;43.858;25.974;2023-03-25T01:26:27;100588.59;;;16.65;43.52
42169;BME280;27838;43.858;25.974;2023-03-25T01:28:54;100585.28;;;16.58;44.08
42169;BME280;27838;43.858;25.974;2023-03-25T01:31:20;100584.47;;;16.56;44.12
42169;BME280;27838;43.858;25.974;2023-03-25T01:33:50;100566.28;;;16.47;43.92
42169;BME280;27838;43.858;25.974;2023-03-25T01:36:17;100574.16;;;16.48;44.02
42169;BME280;27838;43.858;25.974;2023-03-25T01:38:45;100576.75;;;16.50;44.11
42169;BME280;27838;43.858;25.974;2023-03-25T01:41:12;100575.91;;;16.48;44.19
42169;BME280;27838;43.858;25.974;2023-03-25T01:43:38;100575.13;;;16.44;44.08
42169;BME280;27838;43.858;25.974;2023-03-25T01:46:12;100564.00;;;16.34;44.00
42169;BME280;27838;43.858;25.974;2023-03-25T01:48:41;100574.38;;;16.39;44.57
42169;BME280;27838;43.858;25.974;2023-03-25T01:51:16;100560.56;;;16.32;44.71
42169;BME280;27838;43.858;25.974;2023-03-25T01:53:44;100567.59;;;16.30;45.00
42169;BME280;27838;43.858;25.974;2023-03-25T01:56:16;100562.44;;;16.27;44.96
42169;BME280;27838;43.858;25.974;2023-03-25T01:58:46;100558.09;;;16.24;44.88
42169;BME280;27838;43.858;25.974;2023-03-25T02:01:16;100566.88;;;16.25;45.19
42169;BME280;27838;43.858;25.974;2023-03-25T02:03:47;100558.19;;;16.21;45.34
42169;BME280;27838;43.858;25.974;2023-03-25T02:06:29;100553.94;;;16.16;45.36
42169;BME280;27838;43.858;25.974;2023-03-25T02:09:01;100555.06;;;16.05;45.42
42169;BME280;27838;43.858;25.974;2023-03-25T02:11:29;100533.41;;;15.97;45.53
42169;BME280;27838;43.858;25.974;2023-03-25T02:14:00;100535.84;;;16.03;45.50
42169;BME280;27838;43.858;25.974;2023-03-25T02:22:43;100518.41;;;16.01;44.59
42169;BME280;27838;43.858;25.974;2023-03-25T02:25:34;100524.59;;;15.98;44.88
42169;BME280;27838;43.858;25.974;2023-03-25T02:28:37;100511.72;;;15.88;44.54
42169;BME280;27838;43.858;25.974;2023-03-25T02:32:02;100524.78;;;15.92;44.74
42169;BME280;27838;43.858;25.974;2023-03-25T02:40:08;100509.81;;;15.94;44.18
42169;BME280;27838;43.858;25.974;2023-03-25T02:45:11;100513.97;;;16.03;43.64
42169;BME280;27838;43.858;25.974;2023-03-25T02:47:47;100508.75;;;16.01;43.67
42169;BME280;27838;43.858;25.974;2023-03-25T02:50:46;100499.25;;;15.96;43.86
42169;BME280;27838;43.858;25.974;2023-03-25T02:53:20;100495.66;;;16.00;43.92
42169;BME280;27838;43.858;25.974;2023-03-25T02:55:50;100501.72;;;16.02;43.67
42169;BME280;27838;43.858;25.974;2023-03-25T02:58:19;100497.59;;;15.92;44.01
42169;BME280;27838;43.858;25.974;2023-03-25T03:00:48;100500.47;;;15.82;44.51
42169;BME280;27838;43.858;25.974;2023-03-25T03:03:16;100494.56;;;15.73;44.40
42169;BME280;27838;43.858;25.974;2023-03-25T03:05:49;100489.56;;;15.62;45.01
42169;BME280;27838;43.858;25.974;2023-03-25T03:11:15;100500.22;;;15.56;45.22
42169;BME280;27838;43.858;25.974;2023-03-25T03:22:26;100490.94;;;15.41;45.41
42169;BME280;27838;43.858;25.974;2023-03-25T03:25:18;100489.22;;;15.40;45.87
42169;BME280;27838;43.858;25.974;2023-03-25T03:28:12;100496.22;;;15.39;46.02
42169;BME280;27838;43.858;25.974;2023-03-25T03:30:46;100497.09;;;15.40;46.05
42169;BME280;27838;43.858;25.974;2023-03-25T03:33:34;100498.84;;;15.39;46.23
42169;BME280;27838;43.858;25.974;2023-03-25T03:36:06;100497.09;;;15.40;46.03
42169;BME280;27838;43.858;25.974;2023-03-25T03:38:37;100489.19;;;15.41;46.61
42169;BME280;27838;43.858;25.974;2023-03-25T03:41:09;100489.25;;;15.38;47.17
42169;BME280;27838;43.858;25.974;2023-03-25T03:43:44;100492.81;;;15.36;46.92
42169;BME280;27838;43.858;25.974;2023-03-25T03:46:30;100467.84;;;15.18;47.53
42169;BME280;27838;43.858;25.974;2023-03-25T03:49:00;100487.78;;;15.26;47.34
42169;BME280;27838;43.858;25.974;2023-03-25T03:52:20;100486.06;;;15.25;47.56
42169;BME280;27838;43.858;25.974;2023-03-25T03:54:25;100488.91;;;15.15;47.82
42169;BME280;27838;43.858;25.974;2023-03-25T03:57:15;100488.22;;;15.08;47.77
42169;BME280;27838;43.858;25.974;2023-03-25T04:03:04;100489.97;;;15.06;47.81
42169;BME280;27838;43.858;25.974;2023-03-25T04:05:34;100494.41;;;15.04;47.95
42169;BME280;27838;43.858;25.974;2023-03-25T04:08:17;100494.56;;;14.98;47.83
42169;BME280;27838;43.858;25.974;2023-03-25T04:10:51;100500.69;;;14.97;48.25
42169;BME280;27838;43.858;25.974;2023-03-25T04:13:25;100492.91;;;14.92;48.29
42169;BME280;27838;43.858;25.974;2023-03-25T04:15:56;100497.38;;;14.88;48.55
42169;BME280;27838;43.858;25.974;2023-03-25T04:18:25;100494.81;;;14.85;49.15
42169;BME280;27838;43.858;25.974;2023-03-25T04:20:55;100491.41;;;14.82;49.15
42169;BME280;27838;43.858;25.974;2023-03-25T04:23:23;100495.78;;;14.80;48.61
42169;BME280;27838;43.858;25.974;2023-03-25T04:25:50;100501.81;;;14.85;48.76
42169;BME280;27838;43.858;25.974;2023-03-25T04:28:18;100499.88;;;14.95;48.60
42169;BME280;27838;43.858;25.974;2023-03-25T04:30:45;100495.66;;;15.26;47.95
42169;BME280;27838;43.858;25.974;2023-03-25T04:33:12;100507.72;;;16.07;46.22
42169;BME280;27838;43.858;25.974;2023-03-25T04:35:39;100506.84;;;16.72;44.45
42169;BME280;27838;43.858;25.974;2023-03-25T04:38:06;100505.59;;;17.14;43.56
42169;BME280;27838;43.858;25.974;2023-03-25T04:40:33;100496.38;;;17.29;43.12
42169;BME280;27838;43.858;25.974;2023-03-25T04:42:59;100499.81;;;17.31;43.31
42169;BME280;27838;43.858;25.974;2023-03-25T04:45:26;100500.03;;;17.25;43.51
42169;BME280;27838;43.858;25.974;2023-03-25T04:47:54;100501.19;;;17.16;43.38
42169;BME280;27838;43.858;25.974;2023-03-25T04:50:27;100505.00;;;17.06;43.84
42169;BME280;27838;43.858;25.974;2023-03-25T04:52:55;100507.75;;;17.01;44.09
42169;BME280;27838;43.858;25.974;2023-03-25T04:55:22;100507.75;;;17.01;43.64
42169;BME280;27838;43.858;25.974;2023-03-25T04:57:51;100510.44;;;16.99;43.16
42169;BME280;27838;43.858;25.974;2023-03-25T05:00:20;100510.53;;;16.96;44.34
42169;BME280;27838;43.858;25.974;2023-03-25T05:02:49;100503.59;;;16.94;43.77
42169;BME280;27838;43.858;25.974;2023-03-25T05:05:18;100507.13;;;16.93;44.49
42169;BME280;27838;43.858;25.974;2023-03-25T05:07:47;100509.78;;;16.91;44.53
42169;BME280;27838;43.858;25.974;2023-03-25T05:10:22;100509.66;;;16.96;44.12
42169;BME280;27838;43.858;25.974;2023-03-25T05:13:00;100514.00;;;16.98;44.65
42169;BME280;27838;43.858;25.974;2023-03-25T05:15:27;100507.03;;;16.96;44.24
42169;BME280;27838;43.858;25.974;2023-03-25T05:17:57;100507.03;;;16.96;43.91
42169;BME280;27838;43.858;25.974;2023-03-25T05:20:24;100502.00;;;16.88;44.11
42169;BME280;27838;43.858;25.974;2023-03-25T05:22:50;100509.75;;;16.93;43.90
42169;BME280;27838;43.858;25.974;2023-03-25T05:25:18;100512.38;;;16.93;43.92
42169;BME280;27838;43.858;25.974;2023-03-25T05:27:46;100514.94;;;16.96;44.50
42169;BME280;27838;43.858;25.974;2023-03-25T05:30:13;100515.56;;;17.04;44.29
42169;BME280;27838;43.858;25.974;2023-03-25T05:32:41;100514.47;;;17.11;44.09
42169;BME280;27838;43.858;25.974;2023-03-25T05:35:10;100512.56;;;17.16;44.19
42169;BME280;27838;43.858;25.974;2023-03-25T05:37:36;100509.84;;;17.20;43.78
42169;BME280;27838;43.858;25.974;2023-03-25T05:40:03;100512.75;;;17.10;43.43
42169;BME280;27838;43.858;25.974;2023-03-25T05:42:31;100511.59;;;17.19;43.38
42169;BME280;27838;43.858;25.974;2023-03-25T05:44:59;100507.81;;;17.28;43.53
42169;BME280;27838;43.858;25.974;2023-03-25T05:47:25;100510.19;;;17.37;43.91
42169;BME280;27838;43.858;25.974;2023-03-25T05:49:53;100511.72;;;17.44;43.93
42169;BME280;27838;43.858;25.974;2023-03-25T05:52:20;100507.13;;;17.51;43.73
42169;BME280;27838;43.858;25.974;2023-03-25T05:54:48;100514.66;;;17.62;43.12
42169;BME280;27838;43.858;25.974;2023-03-25T05:57:16;100505.72;;;17.66;43.00
42169;BME280;27838;43.858;25.974;2023-03-25T05:59:43;100505.28;;;17.80;43.50
42169;BME280;27838;43.858;25.974;2023-03-25T06:02:12;100508.34;;;17.94;42.74
42169;BME280;27838;43.858;25.974;2023-03-25T06:04:39;100509.75;;;18.04;42.63
42169;BME280;27838;43.858;25.974;2023-03-25T06:07:10;100504.84;;;18.19;41.97
42169;BME280;27838;43.858;25.974;2023-03-25T06:09:46;100504.38;;;18.33;42.86
42169;BME280;27838;43.858;25.974;2023-03-25T06:12:18;100507.44;;;18.45;42.37
42169;BME280;27838;43.858;25.974;2023-03-25T06:14:46;100500.09;;;18.54;41.17
42169;BME280;27838;43.858;25.974;2023-03-25T06:17:16;100506.69;;;18.65;42.10
42169;BME280;27838;43.858;25.974;2023-03-25T06:19:43;100505.59;;;18.71;39.48
42169;BME280;27838;43.858;25.974;2023-03-25T06:22:11;100504.44;;;18.78;40.38
42169;BME280;27838;43.858;25.974;2023-03-25T06:24:38;100498.78;;;18.91;40.41
42169;BME280;27838;43.858;25.974;2023-03-25T06:27:08;100514.25;;;19.00;40.46
42169;BME280;27838;43.858;25.974;2023-03-25T06:29:38;100508.72;;;19.06;40.71
42169;BME280;27838;43.858;25.974;2023-03-25T06:32:06;100519.91;;;19.13;40.62
42169;BME280;27838;43.858;25.974;2023-03-25T06:34:34;100511.19;;;19.11;39.94
42169;BME280;27838;43.858;25.974;2023-03-25T06:37:00;100508.66;;;19.08;40.30
42169;BME280;27838;43.858;25.974;2023-03-25T06:39:28;100506.50;;;18.95;40.09
42169;BME280;27838;43.858;25.974;2023-03-25T06:41:59;100519.81;;;18.92;39.28
42169;BME280;27838;43.858;25.974;2023-03-25T06:44:26;100513.03;;;18.85;40.06
42169;BME280;27838;43.858;25.974;2023-03-25T06:46:53;100518.00;;;18.94;39.65
42169;BME280;27838;43.858;25.974;2023-03-25T06:49:20;100516.59;;;19.08;39.58
42169;BME280;27838;43.858;25.974;2023-03-25T06:51:47;100514.41;;;19.19;39.43
42169;BME280;27838;43.858;25.974;2023-03-25T06:54:14;100514.59;;;19.36;39.35
42169;BME280;27838;43.858;25.974;2023-03-25T06:56:40;100509.72;;;19.48;38.31
42169;BME280;27838;43.858;25.974;2023-03-25T06:59:07;100507.38;;;19.62;37.65
42169;BME280;27838;43.858;25.974;2023-03-25T07:01:33;100510.63;;;19.69;37.93
42169;BME280;27838;43.858;25.974;2023-03-25T07:04:00;100505.47;;;19.66;36.84
42169;BME280;27838;43.858;25.974;2023-03-25T07:06:27;100513.88;;;19.77;37.01
42169;BME280;27838;43.858;25.974;2023-03-25T07:08:53;100521.03;;;19.73;36.65
42169;BME280;27838;43.858;25.974;2023-03-25T07:11:24;100505.41;;;19.67;36.50
42169;BME280;27838;43.858;25.974;2023-03-25T07:13:52;100513.34;;;19.67;36.84
42169;BME280;27838;43.858;25.974;2023-03-25T07:16:20;100510.44;;;19.75;36.45
42169;BME280;27838;43.858;25.974;2023-03-25T07:18:47;100504.63;;;19.87;36.38
42169;BME280;27838;43.858;25.974;2023-03-25T07:21:14;100505.22;;;19.94;36.43
42169;BME280;27838;43.858;25.974;2023-03-25T07:23:41;100512.69;;;20.05;36.15
42169;BME280;27838;43.858;25.974;2023-03-25T07:26:07;100507.91;;;20.13;35.73
42169;BME280;27838;43.858;25.974;2023-03-25T07:28:34;100500.88;;;20.13;35.76
42169;BME280;27838;43.858;25.974;2023-03-25T07:31:08;100503.88;;;20.25;35.81
42169;BME280;27838;43.858;25.974;2023-03-25T07:33:35;100509.97;;;20.27;35.74
42169;BME280;27838;43.858;25.974;2023-03-25T07:36:04;100515.13;;;20.30;35.89
42169;BME280;27838;43.858;25.974;2023-03-25T07:38:32;100518.44;;;20.35;35.87
42169;BME280;27838;43.858;25.974;2023-03-25T07:40:58;100515.13;;;20.30;35.52
42169;BME280;27838;43.858;25.974;2023-03-25T07:43:25;100500.50;;;20.21;35.45
42169;BME280;27838;43.858;25.974;2023-03-25T07:45:52;100511.44;;;20.34;35.00
42169;BME280;27838;43.858;25.974;2023-03-25T07:48:19;100517.38;;;20.39;35.90
42169;BME280;27838;43.858;25.974;2023-03-25T07:50:50;100517.31;;;20.41;36.02
42169;BME280;27838;43.858;25.974;2023-03-25T07:53:17;100525.97;;;20.44;36.22
42169;BME280;27838;43.858;25.974;2023-03-25T07:55:44;100520.16;;;20.36;36.26
42169;BME280;27838;43.858;25.974;2023-03-25T07:58:11;100517.59;;;20.34;36.13
42169;BME280;27838;43.858;25.974;2023-03-25T08:00:38;100517.59;;;20.34;36.94
42169;BME280;27838;43.858;25.974;2023-03-25T08:03:04;100520.00;;;20.39;36.67
42169;BME280;27838;43.858;25.974;2023-03-25T08:05:31;100515.53;;;20.41;36.82
42169;BME280;27838;43.858;25.974;2023-03-25T08:07:59;100516.97;;;20.48;36.37
42169;BME280;27838;43.858;25.974;2023-03-25T08:10:26;100520.41;;;20.50;36.40
42169;BME280;27838;43.858;25.974;2023-03-25T08:12:53;100523.72;;;20.55;36.37
42169;BME280;27838;43.858;25.974;2023-03-25T08:15:19;100522.56;;;20.61;36.64
42169;BME280;27838;43.858;25.974;2023-03-25T08:17:49;100520.81;;;20.62;36.08
42169;BME280;27838;43.858;25.974;2023-03-25T08:20:16;100513.53;;;20.67;36.45
42169;BME280;27838;43.858;25.974;2023-03-25T08:22:44;100507.66;;;20.79;36.43
42169;BME280;27838;43.858;25.974;2023-03-25T08:25:10;100504.03;;;21.01;35.64
42169;BME280;27838;43.858;25.974;2023-03-25T08:27:38;100491.97;;;21.12;35.15
42169;BME280;27838;43.858;25.974;2023-03-25T08:30:06;100485.94;;;21.28;35.56
42169;BME280;27838;43.858;25.974;2023-03-25T08:32:35;100485.94;;;21.47;35.11
42169;BME280;27838;43.858;25.974;2023-03-25T08:35:03;100492.03;;;21.66;35.11
42169;BME280;27838;43.858;25.974;2023-03-25T08:37:33;100482.63;;;21.78;34.42
42169;BME280;27838;43.858;25.974;2023-03-25T08:40:03;100484.72;;;21.89;34.75
42169;BME280;27838;43.858;25.974;2023-03-25T08:42:37;100477.72;;;21.88;34.75
42169;BME280;27838;43.858;25.974;2023-03-25T08:45:04;100479.59;;;21.86;34.04
42169;BME280;27838;43.858;25.974;2023-03-25T08:47:31;100476.38;;;21.97;34.26
42169;BME280;27838;43.858;25.974;2023-03-25T08:49:58;100475.13;;;22.04;34.35
42169;BME280;27838;43.858;25.974;2023-03-25T08:52:28;100477.38;;;22.12;35.43
42169;BME280;27838;43.858;25.974;2023-03-25T08:54:54;100469.56;;;22.09;35.59
42169;BME280;27838;43.858;25.974;2023-03-25T08:57:21;100464.19;;;22.10;35.30
42169;BME280;27838;43.858;25.974;2023-03-25T08:59:48;100461.56;;;22.26;35.12
42169;BME280;27838;43.858;25.974;2023-03-25T09:02:14;100463.63;;;22.38;34.74
42169;BME280;27838;43.858;25.974;2023-03-25T09:04:41;100458.28;;;22.56;34.77
42169;BME280;27838;43.858;25.974;2023-03-25T09:07:08;100458.53;;;22.67;33.95
42169;BME280;27838;43.858;25.974;2023-03-25T09:09:36;100455.03;;;22.83;34.21
42169;BME280;27838;43.858;25.974;2023-03-25T09:12:05;100452.97;;;23.04;34.31
42169;BME280;27838;43.858;25.974;2023-03-25T09:14:32;100455.63;;;23.04;33.80
42169;BME280;27838;43.858;25.974;2023-03-25T09:16:59;100450.41;;;23.02;34.06
42169;BME280;27838;43.858;25.974;2023-03-25T09:19:26;100455.38;;;23.08;33.69
42169;BME280;27838;43.858;25.974;2023-03-25T09:21:53;100455.06;;;23.14;33.11
42169;BME280;27838;43.858;25.974;2023-03-25T09:24:19;100452.38;;;23.14;33.42
42169;BME280;27838;43.858;25.974;2023-03-25T09:26:47;100450.69;;;23.29;33.87
42169;BME280;27838;43.858;25.974;2023-03-25T09:29:13;100442.41;;;23.34;33.60
42169;BME280;27838;43.858;25.974;2023-03-25T09:31:40;100445.41;;;23.44;33.46
42169;BME280;27838;43.858;25.974;2023-03-25T09:34:07;100440.59;;;23.50;33.44
42169;BME280;27838;43.858;25.974;2023-03-25T09:36:34;100436.66;;;23.42;33.91
42169;BME280;27838;43.858;25.974;2023-03-25T09:39:03;100426.19;;;23.38;33.36
42169;BME280;27838;43.858;25.974;2023-03-25T09:47:18;100424.88;;;23.76;32.74
42169;BME280;27838;43.858;25.974;2023-03-25T09:49:48;100421.28;;;23.77;33.01
42169;BME280;27838;43.858;25.974;2023-03-25T09:52:35;100424.38;;;23.85;33.39
42169;BME280;27838;43.858;25.974;2023-03-25T09:55:08;100423.41;;;24.01;33.15
42169;BME280;27838;43.858;25.974;2023-03-25T09:57:45;100431.22;;;24.18;32.48
42169;BME280;27838;43.858;25.974;2023-03-25T10:00:19;100423.34;;;24.45;31.72
42169;BME280;27838;43.858;25.974;2023-03-25T10:03:17;100401.09;;;24.61;31.08
42169;BME280;27838;43.858;25.974;2023-03-25T10:19:31;100415.22;;;24.76;30.71
42169;BME280;27838;43.858;25.974;2023-03-25T10:22:16;100417.09;;;24.88;30.20
42169;BME280;27838;43.858;25.974;2023-03-25T10:24:51;100402.75;;;25.03;30.45
42169;BME280;27838;43.858;25.974;2023-03-25T10:27:21;100405.59;;;25.15;30.13
42169;BME280;27838;43.858;25.974;2023-03-25T10:29:55;100396.91;;;25.25;30.46
42169;BME280;27838;43.858;25.974;2023-03-25T10:35:13;100399.66;;;25.51;30.76
42169;BME280;27838;43.858;25.974;2023-03-25T10:37:41;100389.63;;;25.55;30.40
42169;BME280;27838;43.858;25.974;2023-03-25T10:42:56;100372.31;;;25.20;30.74
42169;BME280;27838;43.858;25.974;2023-03-25T10:45:25;100378.63;;;24.92;31.04
42169;BME280;27838;43.858;25.974;2023-03-25T10:48:00;100375.06;;;24.79;31.55
42169;BME280;27838;43.858;25.974;2023-03-25T10:50:29;100371.59;;;24.64;32.54
42169;BME280;27838;43.858;25.974;2023-03-25T10:52:56;100373.56;;;24.60;33.32
42169;BME280;27838;43.858;25.974;2023-03-25T10:55:26;100379.03;;;24.59;33.67
42169;BME280;27838;43.858;25.974;2023-03-25T10:57:59;100370.16;;;24.58;33.66
42169;BME280;27838;43.858;25.974;2023-03-25T11:00:27;100361.13;;;24.61;33.61
42169;BME280;27838;43.858;25.974;2023-03-25T11:02:54;100360.16;;;24.62;32.53
42169;BME280;27838;43.858;25.974;2023-03-25T11:05:24;100357.03;;;24.41;32.91
42169;BME280;27838;43.858;25.974;2023-03-25T11:07:55;100357.06;;;24.55;32.20
42169;BME280;27838;43.858;25.974;2023-03-25T11:10:28;100345.47;;;24.69;31.38
42169;BME280;27838;43.858;25.974;2023-03-25T11:12:56;100346.34;;;24.69;31.79
42169;BME280;27838;43.858;25.974;2023-03-25T11:15:36;100340.22;;;24.82;31.33
42169;BME280;27838;43.858;25.974;2023-03-25T11:18:36;100333.34;;;24.78;31.64
42169;BME280;27838;43.858;25.974;2023-03-25T11:21:12;100331.00;;;24.73;31.71
42169;BME280;27838;43.858;25.974;2023-03-25T11:23:47;100325.03;;;24.69;32.22
42169;BME280;27838;43.858;25.974;2023-03-25T11:26:34;100315.06;;;24.86;32.16
42169;BME280;27838;43.858;25.974;2023-03-25T11:29:12;100313.19;;;25.01;32.68
42169;BME280;27838;43.858;25.974;2023-03-25T11:31:40;100306.03;;;25.01;32.27
42169;BME280;27838;43.858;25.974;2023-03-25T11:34:18;100294.09;;;25.07;32.43
42169;BME280;27838;43.858;25.974;2023-03-25T11:37:00;100294.72;;;25.25;31.09
42169;BME280;27838;43.858;25.974;2023-03-25T11:39:37;100290.97;;;25.40;31.54
42169;BME280;27838;43.858;25.974;2023-03-25T11:42:27;100292.59;;;25.56;30.83
42169;BME280;27838;43.858;25.974;2023-03-25T11:44:57;100279.16;;;25.44;31.31
42169;BME280;27838;43.858;25.974;2023-03-25T11:47:29;100281.69;;;25.33;31.84
42169;BME280;27838;43.858;25.974;2023-03-25T11:49:57;100283.81;;;25.28;32.77
42169;BME280;27838;43.858;25.974;2023-03-25T11:52:27;100270.16;;;25.33;32.39
42169;BME280;27838;43.858;25.974;2023-03-25T11:54:59;100272.19;;;25.29;32.55
42169;BME280;27838;43.858;25.974;2023-03-25T11:57:33;100273.06;;;25.42;31.90
42169;BME280;27838;43.858;25.974;2023-03-25T12:00:06;100273.78;;;25.32;31.50
42169;BME280;27838;43.858;25.974;2023-03-25T12:02:42;100269.31;;;25.32;31.54
42169;BME280;27838;43.858;25.974;2023-03-25T12:07:48;100261.22;;;25.47;30.21
42169;BME280;27838;43.858;25.974;2023-03-25T12:18:46;100249.69;;;25.46;30.34
42169;BME280;27838;43.858;25.974;2023-03-25T12:24:07;100260.78;;;25.40;28.68
42169;BME280;27838;43.858;25.974;2023-03-25T12:30:07;100246.69;;;25.51;29.03
42169;BME280;27838;43.858;25.974;2023-03-25T12:32:27;100241.88;;;25.56;29.01
42169;BME280;27838;43.858;25.974;2023-03-25T12:44:06;100236.03;;;25.25;27.05
42169;BME280;27838;43.858;25.974;2023-03-25T12:46:59;100232.81;;;25.20;27.53
42169;BME280;27838;43.858;25.974;2023-03-25T12:49:53;100225.53;;;25.22;28.58
42169;BME280;27838;43.858;25.974;2023-03-25T12:55:14;100216.16;;;25.42;28.60
42169;BME280;27838;43.858;25.974;2023-03-25T13:00:48;100211.25;;;25.23;28.93
42169;BME280;27838;43.858;25.974;2023-03-25T13:08:50;100199.09;;;25.19;28.13
42169;BME280;27838;43.858;25.974;2023-03-25T13:11:25;100202.13;;;25.27;28.24
42169;BME280;27838;43.858;25.974;2023-03-25T13:13:56;100201.13;;;25.28;28.58
42169;BME280;27838;43.858;25.974;2023-03-25T13:16:26;100189.16;;;25.21;28.06
42169;BME280;27838;43.858;25.974;2023-03-25T13:19:24;100198.72;;;25.25;28.11
42169;BME280;27838;43.858;25.974;2023-03-25T13:21:56;100196.03;;;25.25;28.45
42169;BME280;27838;43.858;25.974;2023-03-25T13:24:37;100199.44;;;25.27;28.38
42169;BME280;27838;43.858;25.974;2023-03-25T13:27:05;100189.16;;;25.21;28.88
42169;BME280;27838;43.858;25.974;2023-03-25T13:29:36;100187.47;;;25.20;29.17
42169;BME280;27838;43.858;25.974;2023-03-25T13:32:14;100178.84;;;25.16;29.19
42169;BME280;27838;43.858;25.974;2023-03-25T13:34:47;100171.78;;;25.15;28.83
42169;BME280;27838;43.858;25.974;2023-03-25T13:37:37;100176.16;;;25.03;28.97
42169;BME280;27838;43.858;25.974;2023-03-25T13:42:59;100181.38;;;24.92;29.23
42169;BME280;27838;43.858;25.974;2023-03-25T13:45:33;100179.88;;;24.88;29.34
42169;BME280;27838;43.858;25.974;2023-03-25T13:48:18;100182.44;;;24.90;29.56
42169;BME280;27838;43.858;25.974;2023-03-25T13:50:48;100177.75;;;24.80;30.14
42169;BME280;27838;43.858;25.974;2023-03-25T13:53:26;100175.81;;;24.82;30.45
42169;BME280;27838;43.858;25.974;2023-03-25T14:04:36;100174.53;;;24.62;30.36
42169;BME280;27838;43.858;25.974;2023-03-25T14:07:42;100171.22;;;24.59;30.90
42169;BME280;27838;43.858;25.974;2023-03-25T14:12:46;100176.06;;;24.52;31.25
42169;BME280;27838;43.858;25.974;2023-03-25T14:15:20;100177.47;;;24.58;31.45
42169;BME280;27838;43.858;25.974;2023-03-25T14:17:49;100187.66;;;24.51;31.26
42169;BME280;27838;43.858;25.974;2023-03-25T14:20:42;100178.03;;;24.36;31.22
42169;BME280;27838;43.858;25.974;2023-03-25T14:23:14;100178.19;;;24.20;31.33
42169;BME280;27838;43.858;25.974;2023-03-25T14:25:48;100166.41;;;24.09;31.86
42169;BME280;27838;43.858;25.974;2023-03-25T14:28:50;100161.56;;;24.16;31.93
42169;BME280;27838;43.858;25.974;2023-03-25T14:34:19;100163.97;;;24.34;31.99
42169;BME280;27838;43.858;25.974;2023-03-25T14:44:20;100162.84;;;24.23;32.58
42169;BME280;27838;43.858;25.974;2023-03-25T14:46:47;100149.22;;;24.15;32.48
42169;BME280;27838;43.858;25.974;2023-03-25T14:49:21;100155.66;;;24.25;32.67
42169;BME280;27838;43.858;25.974;2023-03-25T14:51:56;100145.50;;;24.30;32.45
42169;BME280;27838;43.858;25.974;2023-03-25T14:54:33;100154.28;;;24.33;32.76
42169;BME280;27838;43.858;25.974;2023-03-25T14:57:12;100147.31;;;24.30;32.75